26MA weather

Pepperell Airport
Pepperell, Massachusetts, United States

Public forecast

Using degrees Fahrenheit for public forecast. Weather courtesy of forecast.io.

METAR (pilot weather report)

Closest report is Boire Field, 5.4 nm (9.9 km) NNE. Retrieved 2019/07/17 17:56 UTC (28 minutes ago):

KASH 171756Z VRB04KT 10SM FEW080 BKN110 31/23 A2988 RMK AO2 SLP119 T03110233 10311 20239 58014

TAF (pilot weather forecast)

Closest forecast is Manchester-Boston Regional Airport, 15.1 nm (27.9 km) NNE. Retrieved 2019/07/17 18:30 UTC (0 seconds ago):

TAF KMHT 171728Z 1718/1818 21005KT P6SM BKN090 BKN200 FM171900 28009KT P6SM -SHRA BKN060 OVC080 TEMPO 1720/1724 2SM +TSRA OVC050CB FM180200 00000KT P6SM BKN080 OVC120 FM181200 06007KT P6SM BKN025 OVC050